Time;durP1;ratioP1;P1;durP2;ratioP2;P2;SDS_P1;SDS_P2;PMS_P1;PMS_P2;Temp;Humidity;BMP_temperature;BMP_pressure;BME280_temperature;BME280_humidity;BME280_pressure;Samples;Min_cycle;Max_cycle;Signal;HPM_P1;HPM_P2
2021/11/03 00:00:42;;;;;;;1.80;1.70;;;4.10;99.90;;;;;;7373211;19;20467;-77
2021/11/03 00:03:07;;;;;;;1.73;1.63;;;4.10;99.90;;;;;;7377532;19;20399;-75
2021/11/03 00:05:33;;;;;;;1.80;1.70;;;4.10;99.90;;;;;;7377824;19;20312;-76
2021/11/03 00:07:59;;;;;;;2.20;1.80;;;4.10;99.90;;;;;;7381597;19;20313;-74
2021/11/03 00:10:25;;;;;;;1.60;1.50;;;4.10;99.90;;;;;;7379767;19;20355;-75
2021/11/03 00:12:51;;;;;;;1.70;1.60;;;4.00;99.90;;;;;;7375652;19;20317;-75
2021/11/03 00:15:16;;;;;;;1.58;1.48;;;4.00;99.90;;;;;;7376876;19;20328;-74
2021/11/03 00:17:42;;;;;;;1.70;1.60;;;3.90;99.90;;;;;;7380551;19;20406;-75
2021/11/03 00:20:09;;;;;;;1.60;1.50;;;3.90;99.90;;;;;;7380392;19;20419;-75
2021/11/03 00:22:34;;;;;;;1.60;1.50;;;3.90;99.90;;;;;;7387157;19;20377;-76
2021/11/03 00:25:00;;;;;;;1.60;1.50;;;3.90;99.90;;;;;;7385788;19;20309;-77
2021/11/03 00:27:26;;;;;;;1.20;1.20;;;4.00;99.90;;;;;;7384508;19;20336;-76
2021/11/03 00:29:51;;;;;;;1.48;1.38;;;4.00;99.90;;;;;;7384039;19;20351;-75
2021/11/03 00:32:17;;;;;;;1.50;1.40;;;4.00;99.90;;;;;;7385147;19;20332;-76
2021/11/03 00:34:44;;;;;;;1.48;1.38;;;4.10;99.90;;;;;;7383852;19;20324;-76
2021/11/03 00:37:10;;;;;;;1.47;1.37;;;4.20;99.90;;;;;;7383764;19;20702;-76
2021/11/03 00:39:36;;;;;;;3.47;1.48;;;4.10;99.90;;;;;;7381412;19;20320;-76
2021/11/03 00:42:03;;;;;;;1.65;1.55;;;4.10;99.90;;;;;;7382802;19;20315;-76
2021/11/03 00:44:28;;;;;;;1.48;1.38;;;4.10;99.90;;;;;;7383018;19;20341;-76
2021/11/03 00:46:54;;;;;;;1.77;1.67;;;4.10;99.90;;;;;;7385776;19;20301;-76
2021/11/03 00:49:20;;;;;;;1.53;1.43;;;4.20;99.90;;;;;;7384058;19;20316;-76
2021/11/03 00:51:46;;;;;;;1.38;1.30;;;4.20;99.90;;;;;;7381465;19;20784;-76
2021/11/03 00:54:12;;;;;;;1.53;1.43;;;4.20;99.90;;;;;;7384855;19;20364;-76
2021/11/03 00:56:38;;;;;;;1.60;1.33;;;4.30;99.90;;;;;;7380959;19;20317;-76
2021/11/03 00:59:04;;;;;;;1.43;1.33;;;4.30;99.90;;;;;;7383211;19;21166;-76
2021/11/03 01:01:31;;;;;;;1.50;1.40;;;4.30;99.90;;;;;;7384560;19;20799;-76
2021/11/03 01:03:57;;;;;;;1.30;1.30;;;4.40;99.90;;;;;;7382633;19;20342;-76
2021/11/03 01:06:23;;;;;;;1.42;1.40;;;4.30;99.90;;;;;;7380869;19;20313;-76
2021/11/03 01:08:49;;;;;;;1.40;1.30;;;4.30;99.90;;;;;;7382671;19;20859;-76
2021/11/03 01:11:14;;;;;;;1.70;1.60;;;4.30;99.90;;;;;;7379187;19;20415;-74
2021/11/03 01:13:40;;;;;;;1.60;1.50;;;4.30;99.90;;;;;;7381858;19;20321;-76
2021/11/03 01:16:06;;;;;;;1.43;1.40;;;4.30;99.90;;;;;;7380863;19;20332;-75
2021/11/03 01:18:32;;;;;;;1.67;1.58;;;4.20;99.90;;;;;;7382818;19;20365;-76
2021/11/03 01:20:58;;;;;;;2.00;1.90;;;4.20;99.90;;;;;;7381556;19;20300;-76
2021/11/03 01:23:24;;;;;;;1.63;1.52;;;4.20;99.90;;;;;;7381857;19;20320;-76
2021/11/03 01:25:50;;;;;;;1.70;1.60;;;4.10;99.90;;;;;;7382708;19;20677;-76
2021/11/03 01:28:16;;;;;;;1.77;1.67;;;4.10;99.90;;;;;;7384828;19;20304;-75
2021/11/03 01:30:41;;;;;;;1.50;1.40;;;4.10;99.90;;;;;;7383521;19;20341;-75
2021/11/03 01:33:07;;;;;;;1.70;1.60;;;4.10;99.90;;;;;;7379814;19;20337;-76
2021/11/03 01:35:33;;;;;;;1.47;1.30;;;4.20;99.90;;;;;;7382960;19;20342;-76
2021/11/03 01:37:58;;;;;;;1.48;1.38;;;4.20;99.90;;;;;;7382312;19;20903;-76
2021/11/03 01:40:28;;;;;;;1.38;1.27;;;4.20;99.90;;;;;;7382217;19;20883;-76
2021/11/03 01:42:54;;;;;;;1.25;1.25;;;4.20;99.90;;;;;;7381619;19;20347;-76
2021/11/03 01:45:23;;;;;;;2.37;1.70;;;4.20;99.90;;;;;;7380976;19;20335;-76
2021/11/03 01:47:54;;;;;;;1.60;1.50;;;4.20;99.90;;;;;;7378862;19;20869;-76
2021/11/03 01:50:41;;;;;;;1.52;1.42;;;4.10;99.90;;;;;;7382403;19;20322;-76
2021/11/03 01:53:11;;;;;;;1.25;1.25;;;4.10;99.90;;;;;;7280380;19;2006443;-76
2021/11/03 01:55:43;;;;;;;1.20;1.10;;;4.10;99.90;;;;;;7381703;19;20332;-76
2021/11/03 01:58:12;;;;;;;1.17;1.10;;;4.10;99.90;;;;;;7381453;19;20672;-76
2021/11/03 02:00:40;;;;;;;1.50;1.40;;;4.00;99.90;;;;;;7380251;19;20352;-76
2021/11/03 02:03:10;;;;;;;1.45;1.20;;;4.00;99.90;;;;;;7380691;19;20388;-76
2021/11/03 02:05:48;;;;;;;0.93;0.93;;;4.00;99.90;;;;;;7381901;19;20362;-77
2021/11/03 02:08:14;;;;;;;1.20;1.10;;;4.00;99.90;;;;;;7381733;19;20309;-76
2021/11/03 02:10:41;;;;;;;1.20;1.10;;;4.00;99.90;;;;;;7379734;19;20351;-76
2021/11/03 02:13:10;;;;;;;1.58;1.48;;;3.90;99.90;;;;;;7380201;19;20309;-75
2021/11/03 02:15:36;;;;;;;1.52;1.42;;;3.80;99.90;;;;;;7380279;19;20348;-76
2021/11/03 02:18:01;;;;;;;1.30;1.30;;;3.70;99.90;;;;;;7379004;19;20317;-76
2021/11/03 02:20:27;;;;;;;1.23;1.23;;;3.70;99.90;;;;;;7380721;19;20356;-77
2021/11/03 02:23:00;;;;;;;1.20;1.20;;;3.70;99.90;;;;;;7382141;19;20328;-75
2021/11/03 02:25:38;;;;;;;1.00;1.00;;;3.60;99.90;;;;;;7382797;19;20388;-75
2021/11/03 02:28:03;;;;;;;1.50;1.40;;;3.60;99.90;;;;;;7380803;19;20622;-76
2021/11/03 02:30:29;;;;;;;1.13;1.13;;;3.60;99.90;;;;;;7378330;19;20316;-76
2021/11/03 02:32:58;;;;;;;1.13;1.03;;;3.60;99.90;;;;;;7382123;19;20344;-75
2021/11/03 02:35:24;;;;;;;1.03;1.03;;;3.60;99.90;;;;;;7379623;19;20666;-75
2021/11/03 02:37:52;;;;;;;1.20;1.20;;;3.60;99.90;;;;;;7378032;19;20581;-75
2021/11/03 02:40:26;;;;;;;1.38;1.27;;;3.60;99.90;;;;;;7381365;19;20316;-74
2021/11/03 02:42:57;;;;;;;1.13;1.13;;;3.60;99.90;;;;;;7276440;19;2008582;-75
2021/11/03 02:45:28;;;;;;;1.77;1.67;;;3.50;99.90;;;;;;7379274;19;20328;-74
2021/11/03 02:47:54;;;;;;;1.45;1.40;;;3.50;99.90;;;;;;7381734;19;20317;-75
2021/11/03 02:50:20;;;;;;;2.75;1.63;;;3.50;99.90;;;;;;7381734;19;20898;-76
2021/11/03 02:52:46;;;;;;;1.55;1.45;;;3.50;99.90;;;;;;7382290;19;20301;-75
2021/11/03 02:55:12;;;;;;;1.30;1.30;;;3.50;99.90;;;;;;7381606;19;20761;-75
2021/11/03 02:57:38;;;;;;;1.38;1.30;;;3.50;99.90;;;;;;7380049;19;20461;-75
2021/11/03 03:00:06;;;;;;;1.47;1.37;;;3.50;99.90;;;;;;7381376;19;20313;-76
2021/11/03 03:02:31;;;;;;;1.45;1.35;;;3.50;99.90;;;;;;7380942;19;20308;-75
2021/11/03 03:04:57;;;;;;;1.30;1.20;;;3.50;99.90;;;;;;7378064;19;20854;-76
2021/11/03 03:07:23;;;;;;;1.23;1.23;;;3.60;99.90;;;;;;7379157;19;20352;-76
2021/11/03 03:09:50;;;;;;;1.38;1.30;;;3.60;99.90;;;;;;7378725;19;20368;-75
2021/11/03 03:12:18;;;;;;;1.70;1.58;;;3.70;99.90;;;;;;7378524;19;20955;-76
2021/11/03 03:14:47;;;;;;;1.60;1.50;;;3.70;99.90;;;;;;7377941;19;20349;-75
2021/11/03 03:17:15;;;;;;;2.92;1.60;;;3.80;99.90;;;;;;7378799;19;20355;-76
2021/11/03 03:19:42;;;;;;;1.70;1.60;;;3.80;99.90;;;;;;7379890;19;20420;-76
2021/11/03 03:22:08;;;;;;;1.63;1.52;;;3.90;99.90;;;;;;7378225;19;20377;-75
2021/11/03 03:24:35;;;;;;;1.50;1.40;;;4.00;99.90;;;;;;7379499;19;20349;-74
2021/11/03 03:27:00;;;;;;;1.55;1.45;;;4.00;99.90;;;;;;7379436;19;20324;-75
2021/11/03 03:29:27;;;;;;;1.50;1.40;;;4.10;99.90;;;;;;7378620;19;20335;-75
2021/11/03 03:31:53;;;;;;;1.40;1.30;;;4.20;99.90;;;;;;7377003;19;20332;-76
2021/11/03 03:34:20;;;;;;;1.38;1.27;;;4.30;99.90;;;;;;7377991;19;20389;-76
2021/11/03 03:36:48;;;;;;;1.95;1.85;;;4.40;99.90;;;;;;7378281;19;20894;-76
2021/11/03 03:39:15;;;;;;;1.80;1.70;;;4.50;99.90;;;;;;7380168;19;20316;-76
2021/11/03 03:41:41;;;;;;;1.73;1.63;;;4.50;99.90;;;;;;7377249;19;20324;-74
2021/11/03 03:44:07;;;;;;;1.42;1.33;;;4.60;99.90;;;;;;7377989;19;21189;-75
2021/11/03 03:46:34;;;;;;;1.25;1.20;;;4.70;99.90;;;;;;7378681;19;20348;-76
2021/11/03 03:48:59;;;;;;;1.17;1.17;;;4.70;99.90;;;;;;7384269;19;20312;-76
2021/11/03 03:51:26;;;;;;;1.30;1.30;;;4.80;99.90;;;;;;7376353;19;20337;-74
2021/11/03 03:53:51;;;;;;;1.60;1.50;;;4.80;99.90;;;;;;7377713;19;20371;-75
2021/11/03 03:56:21;;;;;;;1.30;1.20;;;4.90;99.90;;;;;;7383681;19;20304;-76
2021/11/03 03:58:48;;;;;;;1.40;1.30;;;5.00;99.90;;;;;;7384994;19;20345;-76
2021/11/03 04:01:15;;;;;;;1.20;1.20;;;5.00;99.90;;;;;;7383946;19;21187;-75
2021/11/03 04:03:42;;;;;;;1.60;1.50;;;5.00;99.90;;;;;;7384685;19;20360;-75
2021/11/03 04:06:08;;;;;;;1.30;1.20;;;5.10;99.90;;;;;;7383933;19;20312;-76
2021/11/03 04:08:34;;;;;;;1.65;1.55;;;5.20;99.90;;;;;;7386544;19;20344;-76
2021/11/03 04:10:59;;;;;;;1.20;1.20;;;5.20;99.90;;;;;;7372530;19;20293;-75
2021/11/03 04:13:26;;;;;;;1.50;1.40;;;5.20;99.90;;;;;;7384488;19;20320;-76
2021/11/03 04:15:53;;;;;;;1.35;1.27;;;5.30;99.90;;;;;;7385276;19;20330;-75
2021/11/03 04:18:19;;;;;;;1.50;1.40;;;5.30;99.90;;;;;;7384650;19;20876;-75
2021/11/03 04:20:45;;;;;;;1.05;1.05;;;5.30;99.90;;;;;;7384868;19;20345;-76
2021/11/03 04:23:11;;;;;;;1.58;1.48;;;5.30;99.90;;;;;;7385645;19;20662;-75
2021/11/03 04:25:39;;;;;;;1.33;1.30;;;5.40;99.90;;;;;;7383401;19;20993;-76
2021/11/03 04:28:05;;;;;;;1.70;1.60;;;5.50;99.90;;;;;;7386726;19;20408;-76
2021/11/03 04:30:31;;;;;;;1.63;1.30;;;5.50;99.90;;;;;;7386178;19;20334;-77
2021/11/03 04:32:57;;;;;;;1.20;1.20;;;5.50;99.90;;;;;;7386697;19;20357;-76
2021/11/03 04:35:23;;;;;;;1.50;1.40;;;5.60;99.90;;;;;;7383572;19;20741;-75
2021/11/03 04:37:49;;;;;;;1.17;1.17;;;5.60;99.90;;;;;;7384569;19;20304;-76
2021/11/03 04:40:16;;;;;;;1.80;1.63;;;5.70;99.90;;;;;;7384818;19;20824;-76
2021/11/03 04:42:42;;;;;;;1.55;1.45;;;5.70;99.90;;;;;;7383597;19;20344;-75
2021/11/03 04:45:08;;;;;;;1.60;1.50;;;5.70;99.90;;;;;;7384431;19;20349;-76
2021/11/03 04:47:34;;;;;;;1.50;1.40;;;5.70;99.90;;;;;;7384369;19;20345;-76
2021/11/03 04:50:01;;;;;;;1.25;1.25;;;5.80;99.90;;;;;;7384438;19;20340;-76
2021/11/03 04:52:30;;;;;;;1.40;1.30;;;5.80;99.90;;;;;;7384918;19;20339;-76
2021/11/03 04:54:56;;;;;;;1.50;1.38;;;5.80;99.90;;;;;;7383558;19;20348;-75
2021/11/03 04:57:23;;;;;;;1.37;1.27;;;5.90;99.90;;;;;;7382219;19;20300;-75
2021/11/03 04:59:48;;;;;;;1.50;1.40;;;5.90;99.90;;;;;;7385636;19;20321;-75
2021/11/03 05:02:15;;;;;;;1.70;1.30;;;5.90;99.90;;;;;;7384373;19;20403;-75
2021/11/03 05:04:41;;;;;;;1.30;1.30;;;5.90;99.90;;;;;;7383791;19;20332;-75
2021/11/03 05:07:07;;;;;;;1.37;1.33;;;5.90;99.90;;;;;;7381758;19;20359;-76
2021/11/03 05:09:33;;;;;;;1.70;1.50;;;5.90;99.90;;;;;;7382830;19;20342;-76
2021/11/03 05:11:59;;;;;;;3.30;2.30;;;6.00;99.90;;;;;;7383821;19;20305;-76
2021/11/03 05:14:26;;;;;;;1.70;1.60;;;6.00;99.90;;;;;;7382608;19;20370;-76
2021/11/03 05:16:54;;;;;;;1.27;1.27;;;6.00;99.90;;;;;;7382250;19;21084;-76
2021/11/03 05:19:45;;;;;;;1.60;1.50;;;6.00;99.90;;;;;;7382765;19;20321;-76
2021/11/03 05:22:18;;;;;;;2.10;1.80;;;6.00;99.90;;;;;;7281847;19;2009186;-77
2021/11/03 05:24:45;;;;;;;1.60;1.50;;;6.00;99.90;;;;;;7382667;19;20336;-76
2021/11/03 05:27:12;;;;;;;1.42;1.33;;;6.00;99.90;;;;;;7386274;19;20351;-77
2021/11/03 05:29:38;;;;;;;1.40;1.30;;;6.10;99.90;;;;;;7391435;19;20871;-77
2021/11/03 05:32:04;;;;;;;1.60;1.50;;;6.10;99.90;;;;;;7386560;19;20317;-77
2021/11/03 05:34:30;;;;;;;1.60;1.50;;;6.10;99.90;;;;;;7385703;19;20313;-76
2021/11/03 05:36:55;;;;;;;1.50;1.40;;;6.10;99.90;;;;;;7384550;19;20328;-76
2021/11/03 05:39:21;;;;;;;1.70;1.60;;;6.20;99.90;;;;;;7382231;19;20328;-77
2021/11/03 05:41:47;;;;;;;1.87;1.77;;;6.20;99.90;;;;;;7381978;19;20420;-76
2021/11/03 05:44:15;;;;;;;1.63;1.52;;;6.20;99.90;;;;;;7361138;19;20891;-76
2021/11/03 05:46:51;;;;;;;1.60;1.50;;;6.20;99.90;;;;;;7382511;19;20351;-77
2021/11/03 05:49:19;;;;;;;1.70;1.60;;;6.20;99.90;;;;;;7278943;19;2013772;-78
2021/11/03 05:51:45;;;;;;;1.95;1.85;;;6.20;99.90;;;;;;7378033;19;20451;-79
2021/11/03 05:54:11;;;;;;;1.60;1.50;;;6.10;99.90;;;;;;7380991;19;20351;-78
2021/11/03 05:56:37;;;;;;;1.90;1.80;;;6.10;99.90;;;;;;7381318;19;20336;-76
2021/11/03 05:59:03;;;;;;;1.37;1.30;;;6.10;99.90;;;;;;7381606;19;20329;-76
2021/11/03 06:01:29;;;;;;;1.83;1.73;;;6.10;99.90;;;;;;7379133;19;20440;-76
2021/11/03 06:03:55;;;;;;;2.10;2.00;;;6.10;99.90;;;;;;7376543;19;20875;-76
2021/11/03 06:06:21;;;;;;;1.83;1.73;;;6.00;99.90;;;;;;7379679;19;20337;-76
2021/11/03 06:08:48;;;;;;;2.60;2.10;;;6.10;99.90;;;;;;7368456;19;20312;-76
2021/11/03 06:11:15;;;;;;;2.13;1.92;;;5.90;99.90;;;;;;7377414;19;21034;-75
2021/11/03 06:13:42;;;;;;;2.10;1.88;;;5.90;99.90;;;;;;7377006;19;20700;-77
2021/11/03 06:16:08;;;;;;;2.50;2.05;;;5.80;99.90;;;;;;7377994;19;21101;-77
2021/11/03 06:18:33;;;;;;;1.80;1.70;;;5.80;99.90;;;;;;7375545;19;20315;-77
2021/11/03 06:20:59;;;;;;;1.50;1.40;;;5.80;99.90;;;;;;7377995;19;20341;-76
2021/11/03 06:23:25;;;;;;;1.80;1.70;;;5.80;99.90;;;;;;7379786;19;20356;-79
2021/11/03 06:25:51;;;;;;;2.28;2.08;;;5.80;99.90;;;;;;7379656;19;20325;-79
2021/11/03 06:28:17;;;;;;;2.93;2.70;;;5.80;99.90;;;;;;7383346;19;20293;-78
2021/11/03 06:30:43;;;;;;;2.50;2.40;;;5.80;99.90;;;;;;7382139;19;20324;-78
2021/11/03 06:33:09;;;;;;;5.20;2.73;;;5.80;99.90;;;;;;7380486;19;20713;-79
2021/11/03 06:35:36;;;;;;;2.28;2.17;;;5.80;99.90;;;;;;7383178;19;20352;-78
2021/11/03 06:38:03;;;;;;;2.50;2.30;;;5.80;99.90;;;;;;7380767;19;20313;-78
2021/11/03 06:40:29;;;;;;;3.40;2.30;;;5.80;99.90;;;;;;7382010;19;20324;-79
2021/11/03 06:42:54;;;;;;;2.40;2.20;;;5.90;99.90;;;;;;7380874;19;20340;-78
2021/11/03 06:45:22;;;;;;;2.30;2.10;;;6.00;99.90;;;;;;7382116;19;20329;-79
2021/11/03 06:47:48;;;;;;;3.10;2.70;;;6.00;99.90;;;;;;7378262;19;20341;-79
2021/11/03 06:50:16;;;;;;;4.18;3.78;;;6.10;99.90;;;;;;7377411;19;20306;-78
2021/11/03 06:52:44;;;;;;;2.00;1.90;;;6.10;99.90;;;;;;7377847;19;20317;-78
2021/11/03 06:55:10;;;;;;;2.15;1.90;;;6.20;99.90;;;;;;7377883;19;20324;-78
2021/11/03 06:57:35;;;;;;;2.13;1.92;;;6.30;99.90;;;;;;7381567;19;20400;-79
2021/11/03 07:00:09;;;;;;;1.75;1.65;;;6.30;99.90;;;;;;7381629;19;21439;-77
2021/11/03 07:02:35;;;;;;;1.80;1.70;;;6.40;99.90;;;;;;7382255;19;20908;-78
2021/11/03 07:05:01;;;;;;;2.72;1.90;;;6.40;99.90;;;;;;7385394;19;20317;-79
2021/11/03 07:07:30;;;;;;;2.13;1.93;;;6.50;99.90;;;;;;7370422;19;20868;-80
2021/11/03 07:09:56;;;;;;;2.13;2.03;;;6.40;99.90;;;;;;7382556;19;20356;-79
2021/11/03 07:12:21;;;;;;;2.13;2.00;;;6.60;99.90;;;;;;7381723;19;20299;-80
2021/11/03 07:14:47;;;;;;;6.57;2.13;;;6.70;99.90;;;;;;7382426;19;20849;-79
2021/11/03 07:17:13;;;;;;;1.87;1.77;;;6.60;99.90;;;;;;7381639;19;20324;-80
2021/11/03 07:19:39;;;;;;;1.92;1.83;;;6.60;99.90;;;;;;7380924;19;20316;-80
2021/11/03 07:22:08;;;;;;;2.27;2.07;;;6.60;99.90;;;;;;7382610;19;20312;-79
2021/11/03 07:24:33;;;;;;;1.75;1.65;;;6.70;99.90;;;;;;7381086;19;20682;-79
2021/11/03 07:26:59;;;;;;;1.93;1.83;;;6.70;99.90;;;;;;7391738;19;20313;-80
2021/11/03 07:29:25;;;;;;;1.80;1.70;;;6.70;99.90;;;;;;7394937;19;20316;-80
2021/11/03 07:31:51;;;;;;;2.00;1.85;;;6.70;99.90;;;;;;7394435;19;20317;-80
2021/11/03 07:34:17;;;;;;;2.28;2.08;;;6.80;99.90;;;;;;7388823;19;20313;-79
2021/11/03 07:36:44;;;;;;;2.20;2.10;;;6.70;99.90;;;;;;7396182;19;20327;-80
2021/11/03 07:39:09;;;;;;;2.28;2.10;;;6.80;99.90;;;;;;7399692;19;20752;-79
2021/11/03 07:41:35;;;;;;;3.83;2.08;;;6.70;99.90;;;;;;7395870;19;20346;-81
2021/11/03 07:44:03;;;;;;;2.17;1.97;;;6.90;99.90;;;;;;7398493;19;20352;-80
2021/11/03 07:46:29;;;;;;;2.55;2.00;;;6.90;99.90;;;;;;7404550;19;20288;-79
2021/11/03 07:48:56;;;;;;;1.65;1.55;;;6.90;99.90;;;;;;7398510;19;20348;-80
2021/11/03 07:51:22;;;;;;;1.88;1.77;;;6.90;99.90;;;;;;7399102;19;20343;-80
2021/11/03 07:53:49;;;;;;;2.10;1.90;;;6.90;99.90;;;;;;7394879;19;20308;-79
2021/11/03 07:56:19;;;;;;;2.75;1.88;;;7.00;99.90;;;;;;7397549;19;20321;-80
2021/11/03 07:58:46;;;;;;;2.80;1.80;;;7.00;99.90;;;;;;7393454;19;20328;-79
2021/11/03 08:01:12;;;;;;;3.25;2.20;;;7.00;99.90;;;;;;7389184;19;20329;-80
2021/11/03 08:03:37;;;;;;;2.47;2.28;;;7.00;99.90;;;;;;7386927;19;20315;-80
2021/11/03 08:06:04;;;;;;;2.40;2.20;;;7.10;99.90;;;;;;7382979;19;20349;-80
2021/11/03 08:08:31;;;;;;;3.22;2.70;;;7.10;99.90;;;;;;7385262;19;20354;-79
2021/11/03 08:10:58;;;;;;;2.65;2.45;;;7.10;99.90;;;;;;7384283;19;20343;-80
2021/11/03 08:13:26;;;;;;;2.80;2.60;;;7.20;99.90;;;;;;7382875;19;20690;-79
2021/11/03 08:15:53;;;;;;;3.40;3.10;;;7.20;99.90;;;;;;7380070;19;20327;-79
2021/11/03 08:18:20;;;;;;;4.40;3.72;;;7.30;99.90;;;;;;7381355;19;20325;-78
2021/11/03 08:20:45;;;;;;;4.10;3.57;;;7.30;99.90;;;;;;7379785;19;20710;-79
2021/11/03 08:23:12;;;;;;;4.30;3.40;;;7.40;99.90;;;;;;7382260;19;20378;-79
2021/11/03 08:25:38;;;;;;;3.70;3.20;;;7.50;99.90;;;;;;7382914;19;20301;-79
2021/11/03 08:28:04;;;;;;;3.65;3.35;;;7.50;99.90;;;;;;7379980;19;20339;-79
2021/11/03 08:30:29;;;;;;;3.85;3.13;;;7.60;99.90;;;;;;7380782;19;20305;-78
2021/11/03 08:33:37;;;;;;;3.07;2.87;;;7.70;99.90;;;;;;7379994;19;20329;-79
2021/11/03 08:36:03;;;;;;;4.18;3.78;;;7.80;99.90;;;;;;7273557;19;2007562;-79
2021/11/03 08:38:29;;;;;;;4.32;3.92;;;7.90;99.90;;;;;;7377936;19;20340;-79
2021/11/03 08:40:55;;;;;;;4.40;3.43;;;8.00;99.90;;;;;;7378668;19;20347;-79
2021/11/03 08:43:23;;;;;;;4.38;3.97;;;8.10;99.90;;;;;;7389778;19;20355;-79
2021/11/03 08:45:50;;;;;;;4.22;3.88;;;8.10;99.90;;;;;;7389965;19;20300;-80
2021/11/03 08:48:16;;;;;;;3.10;2.90;;;8.20;99.90;;;;;;7389778;19;20315;-79
2021/11/03 08:50:42;;;;;;;4.00;3.60;;;8.20;99.90;;;;;;7389026;19;20308;-79
2021/11/03 08:53:08;;;;;;;3.10;2.90;;;8.30;99.90;;;;;;7387627;19;20324;-80
2021/11/03 08:55:33;;;;;;;4.32;3.90;;;8.30;99.90;;;;;;7386904;19;20402;-79
2021/11/03 08:58:00;;;;;;;4.00;3.55;;;8.40;99.90;;;;;;7388441;19;20313;-80
2021/11/03 09:00:28;;;;;;;3.95;3.45;;;8.40;99.90;;;;;;7386981;19;20328;-79
2021/11/03 09:02:53;;;;;;;3.38;3.10;;;8.40;99.90;;;;;;7387085;19;20317;-78
2021/11/03 09:05:19;;;;;;;3.17;2.93;;;8.50;99.90;;;;;;7389891;19;20913;-79
2021/11/03 09:07:47;;;;;;;3.33;3.03;;;8.60;99.90;;;;;;7391914;19;20395;-79
2021/11/03 09:10:14;;;;;;;3.08;2.85;;;8.70;99.90;;;;;;7355548;19;20915;-80
2021/11/03 09:12:40;;;;;;;2.60;2.40;;;8.80;99.90;;;;;;7382004;19;20956;-79
2021/11/03 09:15:07;;;;;;;2.50;2.30;;;8.90;99.90;;;;;;7386291;19;20297;-78
2021/11/03 09:17:33;;;;;;;3.13;2.90;;;9.00;99.90;;;;;;7387170;19;20872;-80
2021/11/03 09:19:58;;;;;;;3.40;3.10;;;9.10;99.90;;;;;;7385877;19;20340;-78
2021/11/03 09:22:24;;;;;;;3.08;2.83;;;9.10;99.90;;;;;;7386245;19;20913;-79
2021/11/03 09:24:50;;;;;;;3.17;2.90;;;9.20;99.90;;;;;;7390266;19;20349;-79
2021/11/03 09:27:15;;;;;;;4.28;2.97;;;9.10;99.90;;;;;;7385553;19;20384;-79
2021/11/03 09:29:42;;;;;;;3.70;3.40;;;9.20;99.90;;;;;;7386704;19;20305;-80
2021/11/03 09:32:11;;;;;;;3.75;3.28;;;9.20;99.90;;;;;;7385712;19;20400;-79
2021/11/03 09:34:38;;;;;;;3.95;3.63;;;9.30;99.90;;;;;;7383994;19;20331;-79
2021/11/03 09:37:03;;;;;;;3.03;2.83;;;9.30;99.90;;;;;;7386144;19;20305;-79
2021/11/03 09:39:29;;;;;;;3.55;2.78;;;9.30;99.90;;;;;;7387388;19;21038;-79
2021/11/03 09:41:55;;;;;;;3.20;2.80;;;9.30;99.90;;;;;;7383666;19;20836;-78
2021/11/03 09:44:27;;;;;;;3.80;3.40;;;9.30;99.90;;;;;;7387814;19;20635;-80
2021/11/03 09:46:58;;;;;;;3.40;3.10;;;9.30;99.90;;;;;;7385244;19;20348;-78
2021/11/03 09:49:30;;;;;;;2.92;2.72;;;9.40;99.90;;;;;;7384744;19;20330;-78
2021/11/03 09:51:59;;;;;;;3.37;3.07;;;9.50;99.90;;;;;;7384023;19;20732;-77
2021/11/03 09:54:45;;;;;;;3.42;2.97;;;9.60;99.90;;;;;;7383579;19;20439;-78
2021/11/03 09:57:22;;;;;;;2.85;2.60;;;9.50;99.90;;;;;;7282724;19;2010581;-77
2021/11/03 10:00:07;;;;;;;3.00;2.80;;;9.50;99.90;;;;;;7383582;19;20348;-78
2021/11/03 10:02:57;;;;;;;2.33;2.22;;;9.60;99.90;;;;;;7380981;19;20331;-77
2021/11/03 10:05:33;;;;;;;2.55;2.35;;;9.80;99.90;;;;;;7383891;19;20361;-77
2021/11/03 10:08:01;;;;;;;2.77;2.50;;;9.90;99.90;;;;;;7383198;19;20301;-78
2021/11/03 10:10:32;;;;;;;2.65;2.45;;;10.00;99.90;;;;;;7385778;19;20313;-77
2021/11/03 10:13:02;;;;;;;2.97;2.67;;;10.10;99.90;;;;;;7387071;19;20332;-79
2021/11/03 10:15:29;;;;;;;2.97;2.60;;;10.20;99.90;;;;;;7387635;19;20372;-79
2021/11/03 10:18:15;;;;;;;2.80;2.60;;;10.20;99.90;;;;;;7388562;19;20327;-82
2021/11/03 10:20:47;;;;;;;2.38;2.17;;;10.30;99.90;;;;;;7287635;19;2004418;-80
2021/11/03 10:23:32;;;;;;;2.37;2.17;;;10.40;99.90;;;;;;7391106;19;20312;-79
2021/11/03 10:26:05;;;;;;;2.40;2.20;;;10.50;99.90;;;;;;7286427;19;2020224;-79
2021/11/03 10:28:41;;;;;;;2.85;2.55;;;10.60;99.90;;;;;;7390710;19;20304;-80
2021/11/03 10:31:28;;;;;;;2.38;2.17;;;10.60;99.90;;;;;;7387413;19;20313;-79
2021/11/03 10:34:02;;;;;;;2.20;2.10;;;10.80;99.90;;;;;;7285412;19;2020140;-80
2021/11/03 10:36:38;;;;;;;2.20;2.10;;;10.80;99.90;;;;;;7389286;19;20325;-79
2021/11/03 10:39:11;;;;;;;2.05;1.85;;;10.90;99.90;;;;;;7287653;19;2014611;-79
2021/11/03 10:41:37;;;;;;;2.25;2.08;;;10.90;99.90;;;;;;7388267;19;20677;-80
2021/11/03 10:44:21;;;;;;;2.37;2.17;;;10.90;99.90;;;;;;7390322;19;20349;-79
2021/11/03 10:46:53;;;;;;;1.67;1.58;;;11.00;99.90;;;;;;7398992;19;20332;-83
2021/11/03 10:49:34;;;;;;;2.17;2.03;;;11.10;99.90;;;;;;7396945;19;20305;-81
2021/11/03 10:52:11;;;;;;;2.00;1.90;;;11.30;99.90;;;;;;7392622;19;20328;-78
2021/11/03 10:54:41;;;;;;;2.08;1.98;;;11.30;99.90;;;;;;7389690;19;20320;-78
2021/11/03 10:57:46;;;;;;;1.75;1.65;;;11.20;99.90;;;;;;7388439;19;20331;-78
2021/11/03 11:00:29;;;;;;;2.63;1.50;;;11.20;99.90;;;;;;7282799;19;2020101;-80
2021/11/03 11:03:12;;;;;;;1.52;1.42;;;11.40;99.90;;;;;;7382843;19;20368;-78
2021/11/03 11:05:44;;;;;;;1.67;1.57;;;11.60;99.90;;;;;;7385580;19;20400;-78
2021/11/03 11:08:19;;;;;;;1.80;1.60;;;11.80;99.90;;;;;;7385980;19;20316;-78
2021/11/03 11:10:49;;;;;;;1.80;1.70;;;12.20;99.90;;;;;;7386324;19;20320;-80
2021/11/03 11:13:23;;;;;;;1.77;1.67;;;12.40;99.90;;;;;;7388481;19;21179;-79
2021/11/03 11:15:54;;;;;;;1.80;1.70;;;12.60;99.90;;;;;;7285455;19;2013915;-79
2021/11/03 11:18:36;;;;;;;1.60;1.50;;;12.80;99.90;;;;;;7385784;19;20316;-81
2021/11/03 11:21:08;;;;;;;1.60;1.50;;;13.20;99.90;;;;;;7287127;19;2010270;-78
2021/11/03 11:23:42;;;;;;;1.45;1.33;;;13.30;99.90;;;;;;7387019;19;20325;-80
2021/11/03 11:26:28;;;;;;;1.50;1.40;;;13.40;99.90;;;;;;7387835;19;20346;-79
2021/11/03 11:29:10;;;;;;;2.20;1.42;;;13.70;99.90;;;;;;7285503;19;2019989;-79
2021/11/03 11:31:45;;;;;;;1.42;1.33;;;14.00;99.90;;;;;;7285621;19;2012388;-80
2021/11/03 11:34:34;;;;;;;1.40;1.30;;;13.90;99.90;;;;;;7285213;19;2017772;-80
2021/11/03 11:37:06;;;;;;;1.88;1.17;;;13.90;99.90;;;;;;7286350;19;2020077;-79
2021/11/03 11:39:41;;;;;;;0.90;0.90;;;14.00;99.90;;;;;;7389254;19;20843;-80
2021/11/03 11:42:11;;;;;;;1.05;1.05;;;13.90;99.90;;;;;;7388699;19;20317;-80
2021/11/03 11:44:56;;;;;;;1.30;1.20;;;14.10;99.90;;;;;;7390452;19;20942;-78
2021/11/03 11:47:33;;;;;;;1.10;1.10;;;14.20;99.90;;;;;;7288178;19;2012848;-78
2021/11/03 11:49:58;;;;;;;1.13;1.13;;;14.40;99.90;;;;;;7286477;19;2008856;-78
2021/11/03 11:52:26;;;;;;;1.63;1.52;;;14.70;99.90;;;;;;7392153;19;20321;-78
2021/11/03 11:55:28;;;;;;;1.40;1.30;;;14.80;99.90;;;;;;7389976;19;20333;-78
2021/11/03 11:57:56;;;;;;;1.20;1.20;;;14.80;99.90;;;;;;7292754;19;2019989;-80
2021/11/03 12:00:23;;;;;;;1.05;1.05;;;14.90;99.90;;;;;;7395022;19;20309;-81
2021/11/03 12:02:51;;;;;;;1.20;1.10;;;14.90;99.90;;;;;;7402225;19;20334;-81
2021/11/03 12:05:28;;;;;;;1.05;1.05;;;14.90;99.90;;;;;;7399500;19;20308;-78
2021/11/03 12:08:09;;;;;;;1.20;1.10;;;14.90;99.90;;;;;;7397318;19;20305;-79
2021/11/03 12:10:54;;;;;;;1.00;1.00;;;14.90;99.90;;;;;;7396068;19;20321;-79
2021/11/03 12:13:27;;;;;;;1.20;1.10;;;14.40;99.90;;;;;;7390201;19;20308;-78
2021/11/03 12:15:52;;;;;;;1.60;1.17;;;14.20;99.90;;;;;;7392551;19;20316;-79
2021/11/03 12:18:21;;;;;;;1.00;1.00;;;14.30;99.90;;;;;;7401635;19;20308;-79
2021/11/03 12:21:16;;;;;;;1.25;1.20;;;14.50;99.90;;;;;;7397469;19;20710;-78
2021/11/03 12:23:55;;;;;;;1.13;1.00;;;14.60;99.90;;;;;;7293462;19;2020180;-79
2021/11/03 12:26:27;;;;;;;1.00;1.00;;;14.40;99.90;;;;;;7394089;19;20313;-79
2021/11/03 12:29:00;;;;;;;1.00;1.00;;;14.10;99.90;;;;;;7394542;19;20357;-78
2021/11/03 12:31:44;;;;;;;0.90;0.90;;;13.80;99.90;;;;;;7392768;19;20336;-80
2021/11/03 12:34:10;;;;;;;0.93;0.93;;;13.80;99.90;;;;;;7289570;19;2012056;-78
2021/11/03 12:36:57;;;;;;;0.80;0.80;;;13.70;99.90;;;;;;7392220;19;20404;-79
2021/11/03 12:39:28;;;;;;;1.00;1.00;;;13.70;99.90;;;;;;7289480;19;2009267;-78
2021/11/03 12:41:58;;;;;;;0.93;0.93;;;13.70;99.90;;;;;;7290468;19;2020516;-79
2021/11/03 12:44:29;;;;;;;1.00;1.00;;;13.90;99.90;;;;;;7394677;19;20333;-78
2021/11/03 12:46:55;;;;;;;0.77;0.77;;;14.20;99.90;;;;;;7394772;19;20732;-79
2021/11/03 12:49:23;;;;;;;1.20;1.00;;;14.30;99.90;;;;;;7394557;19;20308;-79
2021/11/03 12:51:55;;;;;;;0.80;0.80;;;14.20;99.90;;;;;;7395287;19;20341;-79
2021/11/03 12:54:25;;;;;;;0.70;0.70;;;14.20;99.90;;;;;;7396440;19;20345;-78
2021/11/03 12:57:01;;;;;;;1.40;0.88;;;14.20;99.90;;;;;;7397209;19;20316;-80
2021/11/03 12:59:35;;;;;;;0.70;0.70;;;14.20;99.90;;;;;;7395240;19;20864;-80
2021/11/03 13:02:13;;;;;;;0.93;0.93;;;14.40;99.90;;;;;;7397746;19;20300;-78